Página principal
METAR-TAF:

METAR-TAF

Aeroportos :

Yap, Micronésia

latitude: 09-29N, longitude: 138-05E, altura: 28 m

Observação actual do tempo

O boletim foi feito há 18 minutos, às 12:50 UTC
Vento 10 kt de es-nordeste
Temperatura 28°C
Humidade 70%
Pressão 1010 hPa
Visibilidade: 19.3 km
Poucas nuvensa uma altura de 1600 ft
Nuvens dispersasa uma altura de 13000 ft
Encobertoa uma altura de 30000 ft

METAR: PTYA 161250Z 06010KT 12SM FEW016 SCT130 OVC300 28/22 A2983 RMK SLP101 T02770221

Hora: 23:08 (13:08 UTC)

Previsão

O boletim foi feito há 1 hora e 48 minutos, às 11:20 UTC
Previsão válida de 16 às 12 UTC a 17 às 12 UTC
Vento 11 kt de es-nordeste
Visibilidade: 10 km
Nuvens dispersasa uma altura de 1600 ft
Nuvens fragmentadasa uma altura de 13000 ft
aguaceiros nas vizinhanças

TAF: PTYA 161120Z 1612/1712 06011KT P6SM VCSH SCT016 BKN130

Observações e previsões do tempo de mais de 4000 aeroportos (mensagens METAR e TAF).

As estações disponíveis são os pontos amarelos e vermelhos sobre o mapa.

Mova o rato sobre o mapa para ver o nome da estação.

Depois clique no ponto para visualizar as observações e previsões meteorológicas.

Para alterar o mapa : clique nos botões verdes com uma cruz preta para aumentar o zoom; no botão verde com uma pitada de zoom; ou nas setas verdes para mapas adjacentes.


METAR-TAF: